Time;durP1;ratioP1;P1;durP2;ratioP2;P2;SDS_P1;SDS_P2;PMS_P1;PMS_P2;Temp;Humidity;BMP_temperature;BMP_pressure;BME280_temperature;BME280_humidity;BME280_pressure;Samples;Min_cycle;Max_cycle;Signal;HPM_P1;HPM_P2
2022/03/04 00:05:01;;;;;;;;;;;21.90;27.00;;;;;;5069250;28;19920;-66
2022/03/04 00:07:29;;;;;;;;;;;21.90;27.00;;;;;;5069055;28;20005;-66
2022/03/04 00:09:56;;;;;;;;;;;21.90;27.00;;;;;;5100889;28;19924;-66
2022/03/04 00:12:22;;;;;;;;;;;21.90;27.10;;;;;;5068160;28;19959;-66
2022/03/04 00:14:49;;;;;;;;;;;21.90;27.10;;;;;;5068171;28;19959;-66
2022/03/04 00:17:16;;;;;;;;;;;21.90;27.10;;;;;;5070832;28;19925;-66
2022/03/04 00:19:43;;;;;;;;;;;21.90;27.10;;;;;;5068383;28;20461;-66
2022/03/04 00:22:10;;;;;;;;;;;21.90;27.10;;;;;;5068467;28;20435;-66
2022/03/04 00:28:13;;;;;;;;;;;21.90;27.10;;;;;;5068654;28;20172;-66
2022/03/04 00:30:40;;;;;;;;;;;21.90;27.10;;;;;;5068652;28;19970;-66
2022/03/04 00:33:07;;;;;;;;;;;21.90;27.10;;;;;;5067390;28;19932;-66
2022/03/04 00:35:34;;;;;;;;;;;21.90;27.10;;;;;;5069861;28;19924;-66
2022/03/04 00:38:01;;;;;;;;;;;21.90;27.10;;;;;;5068945;28;19925;-66
2022/03/04 00:40:28;;;;;;;;;;;21.90;27.10;;;;;;5069018;28;19924;-66
2022/03/04 00:42:55;;;;;;;;;;;21.90;27.10;;;;;;5067195;28;20381;-66
2022/03/04 00:45:22;;;;;;;;;;;21.90;27.10;;;;;;5068863;28;19951;-66
2022/03/04 00:47:49;;;;;;;;;;;21.90;27.10;;;;;;5069268;28;19928;-66
2022/03/04 00:53:38;;;;;;;;;;;21.90;27.10;;;;;;5067178;28;19919;-66
2022/03/04 00:56:06;;;;;;;;;;;21.90;27.10;;;;;;5069622;28;19924;-67
2022/03/04 00:58:33;;;;;;;;;;;21.90;27.10;;;;;;5068378;28;20401;-66
2022/03/04 01:01:02;;;;;;;;;;;21.90;27.10;;;;;;5068500;28;19924;-66
2022/03/04 01:03:29;;;;;;;;;;;21.90;27.10;;;;;;5067001;28;19935;-66
2022/03/04 01:12:53;;;;;;;;;;;21.80;27.10;;;;;;5067198;28;19977;-69
2022/03/04 01:15:20;;;;;;;;;;;21.80;27.10;;;;;;5068421;28;19925;-66
2022/03/04 01:17:47;;;;;;;;;;;21.80;27.10;;;;;;5069784;28;19935;-66
2022/03/04 01:20:14;;;;;;;;;;;21.80;27.10;;;;;;5069731;28;20324;-66
2022/03/04 01:22:41;;;;;;;;;;;21.80;27.20;;;;;;5069485;28;19924;-66
2022/03/04 01:25:08;;;;;;;;;;;21.80;27.20;;;;;;5067861;28;19929;-66
2022/03/04 01:27:35;;;;;;;;;;;21.80;27.20;;;;;;5068873;28;20424;-66
2022/03/04 01:30:04;;;;;;;;;;;21.80;27.20;;;;;;5067835;28;20323;-66
2022/03/04 01:32:32;;;;;;;;;;;21.80;27.20;;;;;;5067014;28;19924;-66
2022/03/04 01:34:59;;;;;;;;;;;21.80;27.20;;;;;;5067632;28;19931;-66
2022/03/04 01:37:26;;;;;;;;;;;21.80;27.20;;;;;;5069345;28;20047;-66
2022/03/04 01:39:53;;;;;;;;;;;21.80;27.20;;;;;;5067388;28;20385;-66
2022/03/04 01:42:20;;;;;;;;;;;21.80;27.20;;;;;;5067366;28;19924;-67
2022/03/04 01:48:32;;;;;;;;;;;21.80;27.20;;;;;;5067469;28;20012;-67
2022/03/04 01:51:00;;;;;;;;;;;21.80;27.20;;;;;;5069443;28;19970;-68
2022/03/04 01:53:27;;;;;;;;;;;21.80;27.20;;;;;;5070435;28;19978;-66
2022/03/04 01:55:54;;;;;;;;;;;21.80;27.20;;;;;;5072585;28;19928;-66
2022/03/04 01:58:21;;;;;;;;;;;21.70;27.20;;;;;;5071581;28;19970;-66
2022/03/04 02:07:42;;;;;;;;;;;21.80;27.30;;;;;;5072145;28;20445;-66
2022/03/04 02:10:09;;;;;;;;;;;21.80;27.20;;;;;;5071037;28;19928;-66
2022/03/04 02:12:36;;;;;;;;;;;21.80;27.20;;;;;;5070308;28;19978;-66
2022/03/04 02:15:04;;;;;;;;;;;21.80;27.20;;;;;;5071403;28;20460;-67
2022/03/04 02:17:32;;;;;;;;;;;21.80;27.20;;;;;;5072489;28;19967;-66
2022/03/04 02:23:21;;;;;;;;;;;21.70;27.20;;;;;;5070109;28;20435;-67
2022/03/04 02:25:50;;;;;;;;;;;21.70;27.20;;;;;;5071966;28;19936;-66
2022/03/04 02:28:19;;;;;;;;;;;21.80;27.20;;;;;;5071112;28;20099;-66
2022/03/04 02:30:46;;;;;;;;;;;21.70;27.20;;;;;;5071397;28;19978;-66
2022/03/04 02:33:13;;;;;;;;;;;21.80;27.20;;;;;;5069560;28;19928;-66
2022/03/04 02:39:02;;;;;;;;;;;21.70;27.20;;;;;;5070252;28;19962;-66
2022/03/04 02:41:29;;;;;;;;;;;21.70;27.20;;;;;;5071380;28;20018;-66
2022/03/04 02:43:56;;;;;;;;;;;21.70;27.20;;;;;;5069382;28;19928;-66
2022/03/04 02:46:24;;;;;;;;;;;21.80;27.30;;;;;;5072073;28;19924;-66
2022/03/04 02:52:25;;;;;;;;;;;21.70;27.20;;;;;;5070106;28;19943;-66
2022/03/04 02:54:52;;;;;;;;;;;21.70;27.20;;;;;;5070302;28;19970;-66
2022/03/04 02:57:19;;;;;;;;;;;21.70;27.20;;;;;;5072304;28;19928;-66
2022/03/04 02:59:46;;;;;;;;;;;21.70;27.20;;;;;;5070298;28;19924;-66
2022/03/04 03:02:13;;;;;;;;;;;21.70;27.20;;;;;;5069146;28;19924;-67
2022/03/04 03:08:02;;;;;;;;;;;21.70;27.20;;;;;;5070805;28;20376;-66
2022/03/04 03:10:31;;;;;;;;;;;21.70;27.20;;;;;;5070151;28;19970;-66
2022/03/04 03:12:58;;;;;;;;;;;21.70;27.60;;;;;;5068811;28;19952;-66
2022/03/04 03:15:26;;;;;;;;;;;21.70;27.20;;;;;;5070301;28;19925;-66
2022/03/04 03:17:53;;;;;;;;;;;21.70;27.20;;;;;;5071239;28;19928;-66
2022/03/04 03:27:37;;;;;;;;;;;21.80;27.20;;;;;;5071299;28;20001;-66
2022/03/04 03:30:04;;;;;;;;;;;21.80;27.20;;;;;;5069790;28;19974;-66
2022/03/04 03:32:31;;;;;;;;;;;21.80;27.30;;;;;;5068988;28;19924;-66
2022/03/04 03:34:58;;;;;;;;;;;21.80;27.20;;;;;;5069663;28;19929;-66
2022/03/04 03:37:25;;;;;;;;;;;21.70;27.20;;;;;;5071385;28;19993;-66
2022/03/04 03:39:53;;;;;;;;;;;21.80;27.20;;;;;;5069178;28;20250;-66
2022/03/04 03:42:20;;;;;;;;;;;21.70;27.20;;;;;;5069452;28;19924;-66
2022/03/04 03:44:46;;;;;;;;;;;21.70;27.20;;;;;;5068834;28;19924;-66
2022/03/04 03:47:13;;;;;;;;;;;21.70;27.20;;;;;;5070913;28;20369;-66
2022/03/04 03:53:13;;;;;;;;;;;21.70;27.20;;;;;;5068113;28;19949;-66
2022/03/04 03:55:43;;;;;;;;;;;21.70;27.20;;;;;;5070558;28;19924;-66
2022/03/04 03:58:10;;;;;;;;;;;21.70;27.30;;;;;;5069784;28;19925;-66
2022/03/04 04:00:37;;;;;;;;;;;21.70;27.30;;;;;;5069293;28;19978;-66
2022/03/04 04:03:04;;;;;;;;;;;21.70;27.30;;;;;;5067993;28;19935;-66
2022/03/04 04:12:35;;;;;;;;;;;21.70;27.40;;;;;;5068377;28;19927;-66
2022/03/04 04:15:02;;;;;;;;;;;21.70;27.40;;;;;;5067862;28;19924;-66
2022/03/04 04:17:29;;;;;;;;;;;21.60;27.40;;;;;;5070096;28;19974;-65
2022/03/04 04:19:56;;;;;;;;;;;21.70;27.40;;;;;;5068239;28;19925;-65
2022/03/04 04:22:23;;;;;;;;;;;21.60;27.40;;;;;;5067993;28;19924;-66
2022/03/04 04:28:39;;;;;;;;;;;21.60;27.50;;;;;;5068077;28;19969;-65
2022/03/04 04:31:06;;;;;;;;;;;21.60;27.50;;;;;;5101155;28;19975;-65
2022/03/04 04:33:33;;;;;;;;;;;21.60;27.50;;;;;;5067006;28;20179;-65
2022/03/04 04:36:00;;;;;;;;;;;21.60;27.50;;;;;;5070303;28;20331;-66
2022/03/04 04:38:27;;;;;;;;;;;21.60;27.50;;;;;;5068204;28;19936;-66
2022/03/04 04:48:16;;;;;;;;;;;21.60;27.50;;;;;;5068604;28;19919;-66
2022/03/04 04:50:43;;;;;;;;;;;21.60;27.50;;;;;;5067349;28;19981;-66
2022/03/04 04:53:10;;;;;;;;;;;21.60;27.60;;;;;;5066181;28;19932;-66
2022/03/04 04:55:37;;;;;;;;;;;21.60;27.60;;;;;;5069376;28;19924;-66
2022/03/04 04:58:04;;;;;;;;;;;21.60;27.60;;;;;;5069235;28;20271;-66
2022/03/04 05:07:36;;;;;;;;;;;21.60;27.60;;;;;;5069347;28;19992;-66
2022/03/04 05:10:04;;;;;;;;;;;21.60;27.60;;;;;;5067940;28;19924;-66
2022/03/04 05:12:32;;;;;;;;;;;21.60;27.60;;;;;;5067480;28;20385;-66
2022/03/04 05:14:59;;;;;;;;;;;21.60;27.60;;;;;;5067700;28;20411;-66
2022/03/04 05:17:26;;;;;;;;;;;21.60;27.60;;;;;;5069985;28;19924;-66
2022/03/04 05:24:08;;;;;;;;;;;21.60;27.60;;;;;;5069145;28;20206;-66
2022/03/04 05:26:12;;;;;;;;;;;21.60;27.60;;;;;;5052183;28;19925;-66
2022/03/04 05:28:39;;;;;;;;;;;21.60;27.60;;;;;;5085184;28;19994;-66
2022/03/04 05:31:06;;;;;;;;;;;21.60;27.60;;;;;;5053196;28;19983;-66
2022/03/04 05:33:33;;;;;;;;;;;21.60;27.60;;;;;;5058399;28;19928;-66
2022/03/04 05:36:00;;;;;;;;;;;21.50;27.60;;;;;;5072744;28;20416;-66
2022/03/04 05:38:27;;;;;;;;;;;21.50;27.60;;;;;;5071959;28;19924;-66
2022/03/04 05:48:06;;;;;;;;;;;21.60;27.60;;;;;;5071024;28;19966;-66
2022/03/04 05:50:33;;;;;;;;;;;21.60;27.60;;;;;;5088410;28;20018;-66
2022/03/04 05:53:00;;;;;;;;;;;21.60;27.60;;;;;;5090943;28;19959;-66
2022/03/04 05:55:27;;;;;;;;;;;21.60;27.60;;;;;;5092389;28;19927;-66
2022/03/04 05:57:54;;;;;;;;;;;21.60;27.60;;;;;;5092578;28;20358;-67
2022/03/04 06:07:33;;;;;;;;;;;21.60;27.60;;;;;;5072691;28;19928;-66
2022/03/04 06:10:02;;;;;;;;;;;21.60;27.50;;;;;;5069580;28;19928;-66
2022/03/04 06:12:29;;;;;;;;;;;21.60;27.30;;;;;;5069441;28;20522;-66
2022/03/04 06:14:56;;;;;;;;;;;21.60;27.30;;;;;;5071708;28;19924;-66
2022/03/04 06:17:23;;;;;;;;;;;21.60;27.30;;;;;;5069634;28;20147;-66
2022/03/04 06:19:50;;;;;;;;;;;21.60;27.40;;;;;;5102824;28;20316;-67
2022/03/04 06:22:18;;;;;;;;;;;21.60;27.50;;;;;;5068208;28;19979;-67
2022/03/04 06:24:46;;;;;;;;;;;21.70;27.40;;;;;;5067225;28;19948;-65
2022/03/04 06:27:13;;;;;;;;;;;21.70;27.50;;;;;;5071555;28;19925;-65
2022/03/04 06:29:40;;;;;;;;;;;21.70;27.50;;;;;;5071926;28;19978;-69
2022/03/04 06:32:07;;;;;;;;;;;21.80;27.70;;;;;;5070642;28;19924;-67
2022/03/04 06:34:34;;;;;;;;;;;21.80;27.60;;;;;;5074694;28;19973;-64
2022/03/04 06:37:02;;;;;;;;;;;21.90;28.00;;;;;;5089143;28;20292;-64
2022/03/04 06:39:29;;;;;;;;;;;21.90;27.50;;;;;;5089547;28;19990;-65
2022/03/04 06:41:56;;;;;;;;;;;22.00;27.40;;;;;;5091355;28;19969;-63
2022/03/04 06:44:25;;;;;;;;;;;22.10;27.40;;;;;;5074907;28;20111;-64
2022/03/04 06:46:52;;;;;;;;;;;22.10;27.30;;;;;;5089416;28;20455;-64
2022/03/04 06:49:19;;;;;;;;;;;22.20;27.30;;;;;;5089834;28;19928;-66
2022/03/04 06:51:46;;;;;;;;;;;22.20;27.30;;;;;;5091475;28;19970;-66
2022/03/04 06:54:13;;;;;;;;;;;22.30;27.20;;;;;;5090134;28;19993;-67
2022/03/04 06:56:40;;;;;;;;;;;22.30;27.10;;;;;;5091967;28;19924;-66
2022/03/04 06:59:07;;;;;;;;;;;22.40;27.10;;;;;;5086275;28;20369;-66
2022/03/04 07:01:35;;;;;;;;;;;22.40;27.00;;;;;;5060273;28;20004;-66
2022/03/04 07:04:03;;;;;;;;;;;22.50;26.90;;;;;;5060388;28;19928;-65
2022/03/04 07:06:30;;;;;;;;;;;22.60;27.00;;;;;;5058902;28;20339;-69
2022/03/04 07:08:57;;;;;;;;;;;22.60;27.00;;;;;;5062004;28;20016;-68
2022/03/04 07:11:27;;;;;;;;;;;22.60;26.90;;;;;;5066862;28;19925;-68
2022/03/04 07:13:54;;;;;;;;;;;22.70;27.60;;;;;;5058843;28;19932;-72
2022/03/04 07:16:21;;;;;;;;;;;22.80;27.60;;;;;;5054740;28;20028;-67
2022/03/04 07:25:21;;;;;;;;;;;23.00;27.40;;;;;;5064866;28;19932;-68
2022/03/04 07:27:48;;;;;;;;;;;23.00;27.30;;;;;;5053940;28;19932;-66
2022/03/04 07:30:16;;;;;;;;;;;23.10;27.30;;;;;;5060476;28;19932;-65
2022/03/04 07:32:43;;;;;;;;;;;23.10;27.60;;;;;;5059353;28;20466;-67
2022/03/04 07:35:11;;;;;;;;;;;23.10;27.40;;;;;;5061376;28;19925;-67
2022/03/04 07:37:39;;;;;;;;;;;23.20;27.70;;;;;;5061142;28;19933;-67
2022/03/04 07:40:07;;;;;;;;;;;23.30;27.50;;;;;;5094936;28;19940;-65
2022/03/04 07:42:34;;;;;;;;;;;23.40;27.50;;;;;;5065212;28;20381;-68
2022/03/04 07:45:02;;;;;;;;;;;23.40;27.40;;;;;;5057204;28;19970;-69
2022/03/04 07:47:30;;;;;;;;;;;23.50;27.40;;;;;;5059721;28;19953;-65
2022/03/04 07:49:57;;;;;;;;;;;23.50;27.30;;;;;;5064858;28;20369;-69
2022/03/04 07:52:31;;;;;;;;;;;23.60;27.30;;;;;;5064497;28;19932;-67
2022/03/04 07:55:00;;;;;;;;;;;23.70;27.10;;;;;;5062867;28;19952;-71
2022/03/04 07:57:27;;;;;;;;;;;23.70;27.00;;;;;;5056008;28;20394;-67
2022/03/04 07:59:54;;;;;;;;;;;23.80;27.00;;;;;;5063891;28;20314;-66
2022/03/04 08:02:21;;;;;;;;;;;23.90;27.10;;;;;;5067807;28;19978;-67
2022/03/04 08:04:49;;;;;;;;;;;23.90;27.10;;;;;;5062860;28;20408;-66
2022/03/04 08:07:17;;;;;;;;;;;23.90;27.00;;;;;;5058599;28;19934;-66
2022/03/04 08:09:52;;;;;;;;;;;24.00;26.90;;;;;;5077230;27;19916;-66
2022/03/04 08:12:20;;;;;;;;;;;24.10;27.10;;;;;;5075144;28;19924;-65
2022/03/04 08:14:47;;;;;;;;;;;24.10;27.10;;;;;;5066294;28;19924;-67
2022/03/04 08:17:15;;;;;;;;;;;24.20;27.00;;;;;;5063733;28;19998;-63
2022/03/04 08:19:42;;;;;;;;;;;24.20;26.90;;;;;;5062825;28;19972;-65
2022/03/04 08:22:09;;;;;;;;;;;24.30;27.00;;;;;;5066014;28;19924;-65
2022/03/04 08:24:53;;;;;;;;;;;24.30;26.90;;;;;;5065439;28;20154;-66
2022/03/04 08:27:20;;;;;;;;;;;24.40;26.70;;;;;;5063472;28;19998;-70
2022/03/04 08:29:47;;;;;;;;;;;24.50;26.70;;;;;;5062185;28;19932;-66
2022/03/04 08:32:16;;;;;;;;;;;24.50;26.70;;;;;;5065697;28;19970;-66
2022/03/04 08:34:44;;;;;;;;;;;24.50;26.60;;;;;;5065038;28;19929;-63
2022/03/04 08:37:11;;;;;;;;;;;24.60;26.70;;;;;;5057605;28;19933;-64
2022/03/04 08:39:38;;;;;;;;;;;24.70;26.60;;;;;;5059882;28;19971;-67
2022/03/04 08:42:06;;;;;;;;;;;24.70;26.50;;;;;;5065763;28;19924;-70
2022/03/04 08:44:33;;;;;;;;;;;24.80;26.60;;;;;;5064879;28;20342;-63
2022/03/04 08:47:01;;;;;;;;;;;24.80;26.40;;;;;;5062606;28;20159;-64
2022/03/04 08:49:28;;;;;;;;;;;24.90;26.40;;;;;;5060233;28;19951;-64
2022/03/04 08:51:55;;;;;;;;;;;24.90;26.20;;;;;;5064700;28;19925;-69
2022/03/04 08:54:23;;;;;;;;;;;25.00;26.20;;;;;;5065678;28;19928;-64
2022/03/04 08:56:50;;;;;;;;;;;25.00;26.20;;;;;;5064577;28;19928;-65
2022/03/04 08:59:17;;;;;;;;;;;25.10;26.10;;;;;;5058211;28;20361;-66
2022/03/04 09:01:44;;;;;;;;;;;25.10;25.90;;;;;;5065853;28;19925;-64
2022/03/04 09:04:14;;;;;;;;;;;25.10;25.90;;;;;;5065128;28;19931;-64
2022/03/04 09:06:41;;;;;;;;;;;25.20;26.10;;;;;;5061797;28;20023;-66
2022/03/04 09:09:08;;;;;;;;;;;25.20;26.20;;;;;;5054293;28;19925;-63
2022/03/04 09:11:38;;;;;;;;;;;25.30;26.00;;;;;;5065195;28;20301;-66
2022/03/04 09:14:06;;;;;;;;;;;25.30;26.10;;;;;;5063573;28;19929;-66
2022/03/04 09:16:33;;;;;;;;;;;25.30;26.00;;;;;;5065065;28;19941;-66
2022/03/04 09:19:00;;;;;;;;;;;25.30;25.70;;;;;;5055437;28;20023;-65
2022/03/04 09:21:27;;;;;;;;;;;25.30;25.90;;;;;;5051175;28;19951;-64
2022/03/04 09:23:54;;;;;;;;;;;25.40;25.90;;;;;;5051819;28;19971;-63
2022/03/04 09:26:21;;;;;;;;;;;25.30;25.70;;;;;;5049670;28;19953;-63
2022/03/04 09:28:48;;;;;;;;;;;25.30;25.80;;;;;;5042092;28;19936;-69
2022/03/04 09:31:15;;;;;;;;;;;25.30;25.70;;;;;;5033657;28;20401;-65
2022/03/04 09:33:42;;;;;;;;;;;25.20;25.60;;;;;;5050220;28;19937;-71
2022/03/04 09:36:11;;;;;;;;;;;25.20;25.70;;;;;;5040790;28;19924;-68
2022/03/04 09:38:39;;;;;;;;;;;25.20;25.80;;;;;;5039578;28;19956;-63
2022/03/04 09:41:06;;;;;;;;;;;25.20;25.90;;;;;;5050991;28;20477;-66
2022/03/04 09:43:34;;;;;;;;;;;25.20;25.90;;;;;;5050800;28;19936;-64
2022/03/04 09:46:01;;;;;;;;;;;25.10;25.90;;;;;;5026501;28;20329;-64
2022/03/04 09:48:28;;;;;;;;;;;25.10;26.10;;;;;;5054143;28;19929;-64
2022/03/04 09:50:56;;;;;;;;;;;25.10;26.10;;;;;;5056123;28;20300;-64
2022/03/04 09:53:23;;;;;;;;;;;25.10;26.20;;;;;;5050447;28;19924;-63
2022/03/04 09:55:50;;;;;;;;;;;25.10;26.10;;;;;;5050825;28;19925;-64
2022/03/04 09:58:18;;;;;;;;;;;25.10;26.20;;;;;;5045985;28;19936;-70
2022/03/04 10:00:45;;;;;;;;;;;25.10;26.30;;;;;;5008725;28;19955;-66
2022/03/04 10:03:21;;;;;;;;;;;25.20;26.20;;;;;;5026728;28;19925;-65
2022/03/04 10:05:51;;;;;;;;;;;25.20;26.20;;;;;;5030998;28;19983;-64
2022/03/04 10:08:19;;;;;;;;;;;25.20;26.30;;;;;;5030651;28;20397;-68
2022/03/04 10:10:58;;;;;;;;;;;25.20;26.20;;;;;;5049068;28;20336;-66
2022/03/04 10:13:39;;;;;;;;;;;25.20;26.20;;;;;;5050166;28;19983;-66
2022/03/04 10:16:07;;;;;;;;;;;25.20;26.00;;;;;;5046937;28;20400;-66
2022/03/04 10:18:34;;;;;;;;;;;25.20;26.00;;;;;;5044783;28;20390;-67
2022/03/04 10:21:01;;;;;;;;;;;25.10;25.90;;;;;;5049540;28;19971;-65
2022/03/04 10:23:28;;;;;;;;;;;25.10;25.90;;;;;;5049512;28;20054;-67
2022/03/04 10:25:57;;;;;;;;;;;25.10;25.80;;;;;;5050241;28;19979;-66
2022/03/04 10:28:26;;;;;;;;;;;25.10;25.90;;;;;;5049822;28;20416;-67
2022/03/04 10:30:54;;;;;;;;;;;25.10;26.00;;;;;;5062782;28;19972;-67
2022/03/04 10:33:26;;;;;;;;;;;25.10;25.80;;;;;;5028432;28;19983;-67
2022/03/04 10:36:11;;;;;;;;;;;25.10;25.90;;;;;;5028830;28;19985;-65
2022/03/04 10:38:39;;;;;;;;;;;25.10;26.30;;;;;;5032579;28;19933;-67
2022/03/04 10:41:26;;;;;;;;;;;25.00;25.80;;;;;;5049244;28;19924;-66
2022/03/04 10:43:54;;;;;;;;;;;25.00;25.80;;;;;;5048942;28;19958;-67
2022/03/04 10:46:21;;;;;;;;;;;25.00;25.90;;;;;;5049913;28;20411;-62
2022/03/04 10:48:52;;;;;;;;;;;25.00;25.80;;;;;;5047329;28;19925;-64
2022/03/04 10:51:39;;;;;;;;;;;25.00;26.00;;;;;;5049342;28;19925;-66
2022/03/04 10:54:10;;;;;;;;;;;25.00;26.10;;;;;;5049737;28;19932;-68
2022/03/04 10:56:47;;;;;;;;;;;25.00;26.10;;;;;;5082016;28;19959;-80
2022/03/04 10:59:14;;;;;;;;;;;25.00;26.20;;;;;;5048280;28;20278;-67
2022/03/04 11:01:48;;;;;;;;;;;25.00;26.30;;;;;;5049190;28;19952;-65
2022/03/04 11:04:17;;;;;;;;;;;25.00;26.30;;;;;;5049916;28;19971;-63
2022/03/04 11:06:48;;;;;;;;;;;25.00;26.40;;;;;;5050238;28;19925;-62
2022/03/04 11:09:16;;;;;;;;;;;25.00;26.20;;;;;;5048676;28;19925;-61
2022/03/04 11:11:44;;;;;;;;;;;25.00;26.10;;;;;;5049962;28;20482;-62
2022/03/04 11:14:12;;;;;;;;;;;25.00;26.00;;;;;;5048443;28;19990;-63
2022/03/04 11:16:40;;;;;;;;;;;25.10;26.00;;;;;;5049375;28;19947;-62
2022/03/04 11:19:07;;;;;;;;;;;25.10;25.90;;;;;;5048269;28;19925;-61
2022/03/04 11:21:34;;;;;;;;;;;25.10;25.70;;;;;;5045740;28;20340;-62
2022/03/04 11:24:02;;;;;;;;;;;25.10;25.70;;;;;;5042856;28;19928;-62
2022/03/04 11:29:35;;;;;;;;;;;25.10;25.60;;;;;;5044516;28;20029;-64
2022/03/04 11:32:03;;;;;;;;;;;25.20;25.50;;;;;;5041304;28;19970;-63
2022/03/04 11:34:34;;;;;;;;;;;25.20;25.50;;;;;;5045040;28;19924;-64
2022/03/04 11:37:02;;;;;;;;;;;25.20;25.40;;;;;;5048804;28;19925;-65
2022/03/04 11:39:30;;;;;;;;;;;25.20;25.40;;;;;;5044640;28;20496;-63
2022/03/04 11:42:06;;;;;;;;;;;25.20;25.40;;;;;;5043054;28;19925;-64
2022/03/04 11:44:50;;;;;;;;;;;25.30;25.60;;;;;;5043675;28;19924;-65
2022/03/04 11:47:17;;;;;;;;;;;25.30;25.70;;;;;;5046798;28;19978;-64
2022/03/04 11:49:47;;;;;;;;;;;25.30;25.80;;;;;;5044027;28;19928;-74
2022/03/04 11:52:21;;;;;;;;;;;25.30;26.00;;;;;;5043316;28;21053;-65
2022/03/04 11:55:08;;;;;;;;;;;25.30;26.20;;;;;;5043918;28;19932;-63
2022/03/04 11:57:37;;;;;;;;;;;25.30;26.30;;;;;;5047806;28;19936;-63
2022/03/04 12:00:23;;;;;;;;;;;25.40;26.50;;;;;;5043328;28;20015;-63
2022/03/04 12:02:54;;;;;;;;;;;25.40;26.60;;;;;;5044753;28;19925;-63
2022/03/04 12:05:25;;;;;;;;;;;25.40;26.60;;;;;;5033930;28;20387;-62
2022/03/04 12:08:09;;;;;;;;;;;25.40;26.80;;;;;;5029874;28;20414;-62
2022/03/04 12:10:44;;;;;;;;;;;25.50;26.70;;;;;;5044984;28;19925;-61
2022/03/04 12:13:24;;;;;;;;;;;25.50;26.30;;;;;;5043192;28;20301;-64
2022/03/04 12:15:55;;;;;;;;;;;25.50;26.20;;;;;;5043488;28;20362;-62
2022/03/04 12:18:42;;;;;;;;;;;25.50;26.20;;;;;;5046936;28;19987;-62
2022/03/04 12:21:13;;;;;;;;;;;25.50;26.10;;;;;;5047165;28;20389;-63
2022/03/04 12:23:46;;;;;;;;;;;25.50;25.90;;;;;;5043936;28;19986;-64
2022/03/04 12:26:37;;;;;;;;;;;25.50;25.80;;;;;;5027999;28;20032;-62
2022/03/04 12:29:05;;;;;;;;;;;25.50;25.70;;;;;;5026916;28;20024;-62
2022/03/04 12:31:39;;;;;;;;;;;25.50;25.60;;;;;;5028015;28;19926;-61
2022/03/04 12:34:15;;;;;;;;;;;25.50;25.70;;;;;;5031630;28;19928;-62
2022/03/04 12:36:42;;;;;;;;;;;25.40;25.70;;;;;;5047386;28;19932;-61
2022/03/04 12:39:09;;;;;;;;;;;25.40;25.80;;;;;;5047494;28;19925;-60
2022/03/04 12:41:36;;;;;;;;;;;25.50;26.00;;;;;;5046019;28;19928;-61
2022/03/04 12:44:05;;;;;;;;;;;25.50;26.20;;;;;;5041591;28;19933;-62
2022/03/04 12:46:34;;;;;;;;;;;25.40;26.10;;;;;;5038142;28;20370;-64
2022/03/04 12:49:02;;;;;;;;;;;25.50;26.10;;;;;;5035382;28;19959;-65
2022/03/04 12:51:31;;;;;;;;;;;25.50;26.50;;;;;;5070603;28;19972;-65
2022/03/04 12:54:00;;;;;;;;;;;25.50;26.50;;;;;;5041222;28;19925;-64
2022/03/04 12:56:27;;;;;;;;;;;25.60;26.50;;;;;;5043765;28;20258;-64
2022/03/04 12:58:59;;;;;;;;;;;25.60;26.40;;;;;;5046300;28;20278;-62
2022/03/04 13:01:27;;;;;;;;;;;25.60;26.40;;;;;;5043425;28;19929;-62
2022/03/04 13:03:56;;;;;;;;;;;25.60;26.20;;;;;;5045968;28;19972;-67
2022/03/04 13:06:25;;;;;;;;;;;25.70;26.20;;;;;;5075862;28;20439;-67
2022/03/04 13:08:54;;;;;;;;;;;25.70;26.30;;;;;;5045167;28;19932;-67
2022/03/04 13:11:26;;;;;;;;;;;25.60;26.00;;;;;;5042710;28;19933;-67
2022/03/04 13:13:58;;;;;;;;;;;25.70;25.90;;;;;;5050342;28;19960;-67
2022/03/04 13:16:30;;;;;;;;;;;25.70;25.90;;;;;;5042435;28;20405;-67
2022/03/04 13:19:02;;;;;;;;;;;25.60;25.70;;;;;;5044299;28;19975;-67
2022/03/04 13:21:49;;;;;;;;;;;25.60;25.50;;;;;;5052402;28;19929;-67
2022/03/04 13:24:26;;;;;;;;;;;25.60;25.50;;;;;;5042391;28;19937;-67
2022/03/04 13:26:56;;;;;;;;;;;25.60;25.40;;;;;;5045708;28;20366;-67
2022/03/04 13:29:24;;;;;;;;;;;25.50;25.20;;;;;;5045202;28;20010;-67
2022/03/04 13:31:51;;;;;;;;;;;25.50;25.10;;;;;;5044225;28;20000;-67
2022/03/04 13:34:28;;;;;;;;;;;25.50;25.10;;;;;;5036859;28;19975;-67
2022/03/04 13:36:58;;;;;;;;;;;25.40;25.00;;;;;;5044505;28;19970;-67
2022/03/04 13:39:27;;;;;;;;;;;25.40;25.00;;;;;;5045171;28;19925;-67
2022/03/04 13:42:14;;;;;;;;;;;25.40;25.00;;;;;;5044501;28;20002;-67
2022/03/04 13:44:49;;;;;;;;;;;25.40;24.90;;;;;;5045642;28;19936;-66
2022/03/04 13:47:27;;;;;;;;;;;25.40;25.00;;;;;;5042154;28;19936;-67
2022/03/04 13:49:54;;;;;;;;;;;25.30;24.90;;;;;;5045740;28;19933;-67
2022/03/04 13:52:21;;;;;;;;;;;25.30;24.80;;;;;;5049794;28;19982;-67
2022/03/04 13:54:59;;;;;;;;;;;25.30;24.90;;;;;;5045783;28;20028;-69
2022/03/04 13:57:32;;;;;;;;;;;25.30;25.00;;;;;;5047063;28;20023;-70
2022/03/04 14:00:10;;;;;;;;;;;25.30;25.00;;;;;;5051568;28;19981;-70
2022/03/04 14:02:39;;;;;;;;;;;25.20;25.00;;;;;;5046483;28;19925;-67
2022/03/04 14:05:07;;;;;;;;;;;25.20;25.10;;;;;;5048579;28;20317;-64
2022/03/04 14:07:40;;;;;;;;;;;25.20;25.10;;;;;;5045514;28;19963;-65
2022/03/04 14:10:12;;;;;;;;;;;25.20;25.10;;;;;;5041399;28;19925;-66
2022/03/04 14:12:39;;;;;;;;;;;25.10;25.20;;;;;;5043967;28;19932;-66
2022/03/04 14:15:07;;;;;;;;;;;25.10;25.40;;;;;;5048138;28;20309;-67
2022/03/04 14:17:44;;;;;;;;;;;25.00;25.60;;;;;;5047450;28;19982;-70
2022/03/04 14:20:13;;;;;;;;;;;25.00;25.80;;;;;;5047598;28;20168;-69
2022/03/04 14:22:39;;;;;;;;;;;25.00;25.90;;;;;;5047742;28;19929;-68
2022/03/04 14:25:07;;;;;;;;;;;25.00;25.90;;;;;;5046888;28;20523;-69
2022/03/04 14:27:34;;;;;;;;;;;25.00;25.90;;;;;;5046990;28;19933;-66
2022/03/04 14:30:01;;;;;;;;;;;24.90;25.80;;;;;;5047431;28;20219;-69
2022/03/04 14:32:28;;;;;;;;;;;24.90;25.70;;;;;;5042596;28;19929;-67
2022/03/04 14:34:55;;;;;;;;;;;24.90;25.70;;;;;;5047102;28;19940;-67
2022/03/04 14:37:22;;;;;;;;;;;24.90;25.70;;;;;;5046759;28;20370;-67
2022/03/04 14:39:49;;;;;;;;;;;24.90;25.60;;;;;;5048030;28;19971;-67
2022/03/04 14:42:16;;;;;;;;;;;24.90;25.60;;;;;;5046948;28;20432;-67
2022/03/04 14:44:43;;;;;;;;;;;24.90;25.50;;;;;;5047279;28;20308;-67
2022/03/04 14:47:10;;;;;;;;;;;24.90;25.50;;;;;;5043541;28;20176;-67
2022/03/04 14:49:37;;;;;;;;;;;24.90;25.40;;;;;;5046889;28;19991;-67
2022/03/04 14:52:08;;;;;;;;;;;24.80;25.40;;;;;;5045125;28;19952;-70
2022/03/04 14:54:35;;;;;;;;;;;24.80;25.40;;;;;;5047159;28;20263;-67
2022/03/04 14:57:22;;;;;;;;;;;24.80;25.30;;;;;;5047533;28;19980;-67
2022/03/04 14:59:54;;;;;;;;;;;24.80;25.30;;;;;;5046625;28;19925;-67
2022/03/04 15:02:21;;;;;;;;;;;24.70;25.30;;;;;;5046934;28;20378;-67
2022/03/04 15:04:48;;;;;;;;;;;24.70;25.40;;;;;;5047215;28;20449;-67
2022/03/04 15:07:15;;;;;;;;;;;24.60;25.30;;;;;;5046857;28;20363;-67
2022/03/04 15:09:43;;;;;;;;;;;24.60;25.40;;;;;;5065921;28;19932;-67
2022/03/04 15:12:29;;;;;;;;;;;24.50;25.40;;;;;;5066000;28;20118;-67
2022/03/04 15:14:56;;;;;;;;;;;24.50;25.40;;;;;;5066670;28;20250;-67
2022/03/04 15:17:23;;;;;;;;;;;24.50;25.40;;;;;;5043645;28;19968;-67
2022/03/04 15:19:51;;;;;;;;;;;24.40;25.40;;;;;;5049533;28;20141;-67
2022/03/04 15:22:18;;;;;;;;;;;24.30;25.40;;;;;;5046464;28;20440;-67
2022/03/04 15:24:45;;;;;;;;;;;24.30;25.50;;;;;;5046433;28;20422;-67
2022/03/04 15:27:12;;;;;;;;;;;24.20;25.50;;;;;;5054800;28;19928;-67
2022/03/04 15:29:39;;;;;;;;;;;24.20;25.60;;;;;;5066031;28;19978;-67
2022/03/04 15:32:20;;;;;;;;;;;24.10;25.60;;;;;;5066358;28;19924;-67
2022/03/04 15:34:48;;;;;;;;;;;24.10;25.60;;;;;;5066479;28;20601;-67
2022/03/04 15:37:15;;;;;;;;;;;24.10;25.70;;;;;;5065862;28;19929;-67
2022/03/04 15:39:50;;;;;;;;;;;24.00;25.70;;;;;;5066275;28;19977;-67
2022/03/04 15:42:17;;;;;;;;;;;24.00;25.70;;;;;;5048561;28;19925;-67
2022/03/04 15:44:45;;;;;;;;;;;24.00;25.70;;;;;;5048587;28;19970;-67
2022/03/04 15:47:12;;;;;;;;;;;23.90;25.70;;;;;;5066213;28;19928;-67
2022/03/04 15:49:41;;;;;;;;;;;23.90;25.70;;;;;;5065961;28;20174;-67
2022/03/04 15:52:09;;;;;;;;;;;23.90;25.70;;;;;;5066581;28;19928;-67
2022/03/04 15:54:36;;;;;;;;;;;23.80;25.70;;;;;;5066216;28;19959;-67
2022/03/04 15:57:03;;;;;;;;;;;23.80;25.70;;;;;;5066156;28;20408;-67
2022/03/04 15:59:30;;;;;;;;;;;23.80;25.70;;;;;;5065874;28;19966;-67
2022/03/04 16:01:57;;;;;;;;;;;23.80;25.70;;;;;;5049482;28;20470;-67
2022/03/04 16:04:24;;;;;;;;;;;23.70;25.70;;;;;;5047432;28;19998;-67
2022/03/04 16:06:51;;;;;;;;;;;23.70;25.70;;;;;;5045911;28;19925;-67
2022/03/04 16:09:21;;;;;;;;;;;23.70;25.70;;;;;;5045901;28;20378;-68
2022/03/04 16:11:48;;;;;;;;;;;23.70;25.70;;;;;;5045630;28;19956;-67